Kenwood, Ohio
Current Conditions -  °F | °C
As of 6:55 PM on Thursday 27 Nov 2014 (Local Time) from KLUK Reporting Station
Overcast Overcast  
Wind Chill: 22°   Ceiling: 4300
Heat Index: 32°   Visibility: 10mi
Dew Point: 22°   Wind: 15mph
Humidity: 66%   Direction: 280°W
Pressure: 30.38"   Gusts: NA
Location:  39.2094°N, 84.3952°W
Report Text: KLUK 272355Z 28013KT 10SM OVC043 00/M06 A3038 RMK AO2 T00001056
Loading
Personal Weather Stations






























Interactive Weather Map New forecast layout! Learn more

10-Day Weather Forecast

Advertisements
Track Severe Weather on mobile